KATW

Appleton International Airport

Appleton, Wisconsin, USA
METAR KATW 242345Z 03012KT 10SM BKN120 14/M02 A3002
Observed Flight Rules
Apr-24 @ 23:45 UTC (57 minutes ago) Visual Flight Rules
Wind Visibility Clouds
30° at 12 knots 10 miles
  • Broken at 12,000' AGL
Temperatures Readings
Current 14°C / 57°F
Dewpoint -2°C / 28°F
Humidity 33%
Altimeter 30.02" Hg
Pressure 1017 hPa
Elevation 280
METAR KATW 242345Z 03012KT 10SM BKN120 14/M02 A3002
Observed Flight Rules
Apr-24 @ 23:45 UTC
(57 minutes ago)
VFR
Wind Visibility
30° at 12 knots 10 miles
Clouds
  • Broken at 12,000' AGL
Temperature Dewpoint
14°C / 57°F -2°C / 28°F
Humidity Altimeter Pressure
33% 30.02" Hg 1017 hPa